Jewel Of The Seas — C6FW9 — position and weather

sailwx.info

Track history (hours):
 
Tides and Currents Weather Stations Pressure Air Temp Water Temp Dewpoint Dewpoint Depression Visibility Wind Speed Wind Dir Waves Ship Positions

Jewel Of The Seas

Operator: Royal Caribbean Cruises Ltd

Last reported at 2018-Aug-16 17:54 UTC. Time now 2018-Aug-18 00:47 UTC.
Position N 37°14' E 023°42'.

Length 290 m; draft 8.6 m.

Type: Passenger vessel. MMSI: 311583000.

Date/timePositionNaut miles runAvg speedWind from/ knotsBaromVisibWave heightAir tempDewpointWater temp
2018-Aug-16 17:54N 37°14' E 023°42'2415.5
2018-Aug-16 16:20N 37°38' E 023°43'515.6
2018-Aug-16 16:00N 37°43' E 023°41'816.1
2018-Aug-16 15:30N 37°50' E 023°37'611.7
2018-Aug-16 15:00N 37°56' E 023°37'0 0.4
2018-Aug-16 14:28N 37°56' E 023°37'0 0.0
2018-Aug-16 13:58N 37°56' E 023°37'0 0.0
2018-Aug-16 13:28N 37°56' E 023°37'0 0.0
2018-Aug-16 12:58N 37°56' E 023°37'0 0.0
2018-Aug-16 12:28N 37°56' E 023°37'0 0.0
2018-Aug-16 11:58N 37°56' E 023°37'0 0.0
2018-Aug-16 11:28N 37°56' E 023°37'0 0.0
2018-Aug-16 10:58N 37°56' E 023°37'0 0.0
2018-Aug-16 10:28N 37°56' E 023°37'0 0.0
2018-Aug-16 09:58N 37°56' E 023°37'0 0.0
2018-Aug-16 09:28N 37°56' E 023°37'0 0.0
2018-Aug-16 08:58N 37°56' E 023°37'0 0.0
2018-Aug-16 08:28N 37°56' E 023°37'0 0.0
2018-Aug-16 07:58N 37°56' E 023°37'0 0.0
2018-Aug-16 07:28N 37°56' E 023°37'0 0.0
2018-Aug-16 06:58N 37°56' E 023°37'0 0.0
2018-Aug-16 06:28N 37°56' E 023°37'0 0.0
2018-Aug-16 05:58N 37°56' E 023°37'0 0.0
2018-Aug-16 05:28N 37°56' E 023°37'0 0.0
2018-Aug-16 04:58N 37°56' E 023°37'0 0.0
2018-Aug-16 04:28N 37°56' E 023°37'0 0.0
2018-Aug-16 03:58N 37°56' E 023°37'0 0.0
2018-Aug-16 03:28N 37°56' E 023°37'0 0.0
2018-Aug-16 02:58N 37°56' E 023°37'0 0.0
2018-Aug-16 02:28N 37°56' E 023°37'0 0.0
2018-Aug-16 01:58N 37°56' E 023°37'0 0.3
2018-Aug-16 01:30N 37°56' E 023°37'4 7.0
2018-Aug-16 01:00N 37°53' E 023°37'613.0
2018-Aug-16 00:30N 37°47' E 023°41'612.6
2018-Aug-16 00:00N 37°42' E 023°45'612.7
2018-Aug-15 23:30N 37°35' E 023°47'712.9
2018-Aug-15 23:00N 37°29' E 023°48'712.7
2018-Aug-15 22:26N 37°22' E 023°49'1211.8
2018-Aug-15 21:25N 37°11' E 023°55'4311.0
2018-Aug-15 17:31N 37°13' E 024°49'013.1
2018-Aug-15 17:30N 37°13' E 024°50'612.9
2018-Aug-15 17:00N 37°16' E 024°56'712.6
2018-Aug-15 16:29N 37°19' E 025°04'611.7
2018-Aug-15 16:00N 37°24' E 025°08'612.2
2018-Aug-15 15:30N 37°28' E 025°14'4 8.6
2018-Aug-15 15:00N 37°28' E 025°19'0 0.0
2018-Aug-15 14:30N 37°28' E 025°19'0 0.0
2018-Aug-15 14:00N 37°28' E 025°19'0 0.0
2018-Aug-15 13:30N 37°28' E 025°19'0 0.0
2018-Aug-15 12:57N 37°28' E 025°19'0 0.0
2018-Aug-15 12:30N 37°28' E 025°19'0 0.0
2018-Aug-15 12:00N 37°28' E 025°19'0 0.0
2018-Aug-15 11:30N 37°28' E 025°19'0 0.0
2018-Aug-15 10:57N 37°28' E 025°19'0 0.0
2018-Aug-15 10:30N 37°28' E 025°19'0 0.0
2018-Aug-15 10:00N 37°28' E 025°19'0 0.0
2018-Aug-15 09:30N 37°28' E 025°19'0 0.0
2018-Aug-15 09:00N 37°28' E 025°19'0 0.0
2018-Aug-15 08:24N 37°28' E 025°19'0 0.0
2018-Aug-15 07:57N 37°28' E 025°19'0 0.0
2018-Aug-15 07:30N 37°28' E 025°19'0 0.0
2018-Aug-15 07:00N 37°28' E 025°19'0 0.0
2018-Aug-15 06:30N 37°28' E 025°19'0 0.0
2018-Aug-15 05:57N 37°28' E 025°19'0 0.0
2018-Aug-15 05:30N 37°28' E 025°19'0 0.0
2018-Aug-15 05:00N 37°28' E 025°19'0 0.0
2018-Aug-15 04:30N 37°28' E 025°19'0 0.0
2018-Aug-15 04:00N 37°28' E 025°19'0 0.0
2018-Aug-15 03:30N 37°28' E 025°19'0 0.1
2018-Aug-15 03:00N 37°28' E 025°19'3 6.3
2018-Aug-15 02:30N 37°28' E 025°15'5 9.6
2018-Aug-15 02:00N 37°26' E 025°09'5 9.6
2018-Aug-15 01:30N 37°22' E 025°06'5 9.8
2018-Aug-15 01:00N 37°18' E 025°04'510.1
2018-Aug-15 00:30N 37°13' E 025°01'5 9.5
2018-Aug-15 00:00N 37°09' E 024°59'45011.2
2018-Aug-13 07:51N 37°58' E 015°35'819.5
2018-Aug-13 07:27N 38°06' E 015°35'817.1
2018-Aug-13 07:00N 38°13' E 015°36'714.5
2018-Aug-13 06:31N 38°20' E 015°40'1319.9
2018-Aug-13 05:51N 38°32' E 015°33'1619.7
2018-Aug-13 05:01N 38°46' E 015°23'7419.4
2018-Aug-13 01:12N 39°41' E 014°19'619.3
2018-Aug-13 00:54N 39°45' E 014°14'819.4
2018-Aug-13 00:30N 39°50' E 014°07'1019.5
2018-Aug-13 00:00N 39°57' E 013°58'1119.6
2018-Aug-12 23:27N 40°04' E 013°47'1219.5
2018-Aug-12 22:50N 40°12' E 013°35'619.3
2018-Aug-12 22:30N 40°17' E 013°30'1019.1
2018-Aug-12 22:00N 40°25' E 013°22'1019.1
2018-Aug-12 21:30N 40°32' E 013°14'1019.3
2018-Aug-12 20:58N 40°39' E 013°04'919.6
2018-Aug-12 20:30N 40°46' E 012°56'1219.5
2018-Aug-12 19:53N 40°55' E 012°45'819.5
2018-Aug-12 19:29N 41°00' E 012°38'919.4
2018-Aug-12 19:00N 41°07' E 012°30'4919.1
2018-Aug-12 16:26N 41°47' E 011°51'1519.1
2018-Aug-12 15:40N 41°60' E 011°42'5 0.4
2018-Aug-12 02:05N 42°05' E 011°43'1812.9
2018-Aug-12 00:41N 41°50' E 011°29'613.4
2018-Aug-12 00:16N 41°45' E 011°26'413.4
2018-Aug-12 00:00N 41°42' E 011°24'713.5
2018-Aug-11 23:30N 41°36' E 011°20'1213.4
2018-Aug-11 22:39N 41°25' E 011°13'213.4
2018-Aug-11 22:29N 41°23' E 011°12'2513.4
2018-Aug-11 20:38N 41°01' E 010°57'613.5
2018-Aug-11 20:10N 40°56' E 010°54'313.5
2018-Aug-11 19:59N 40°53' E 010°52'2613.6
2018-Aug-11 18:05N 40°30' E 010°37'113.6
2018-Aug-11 18:00N 40°29' E 010°37'713.5
2018-Aug-11 17:30N 40°23' E 010°33'913.5
2018-Aug-11 16:50N 40°15' E 010°28'713.6
2018-Aug-11 16:20N 40°09' E 010°24'3413.5
2018-Aug-11 13:51N 39°39' E 010°04'513.6
2018-Aug-11 13:29N 39°34' E 010°02'28 3.9
2018-Aug-11 06:07N 39°07' E 009°50'0 0.5
2018-Aug-11 05:58N 39°07' E 009°50'3 0.6
2018-Aug-11 01:21N 39°10' E 009°52'0 0.1
2018-Aug-11 00:56N 39°10' E 009°52'0 0.2
2018-Aug-11 00:30N 39°10' E 009°52'0 0.2
2018-Aug-11 00:00N 39°10' E 009°52'0 0.3
2018-Aug-10 22:57N 39°10' E 009°52'0 0.4
2018-Aug-10 22:16N 39°10' E 009°52'1 2.6
2018-Aug-10 22:00N 39°10' E 009°51'5 9.4
2018-Aug-10 21:28N 39°06' E 009°46'511.5
2018-Aug-10 20:59N 39°03' E 009°41'611.6
2018-Aug-10 20:30N 38°59' E 009°35'6 9.8
2018-Aug-10 19:53N 38°60' E 009°27'15 1.3
2018-Aug-10 08:36N 38°60' E 009°08'23117.4
2018-Aug-09 19:20N 38°57' E 004°10'618.1
2018-Aug-09 19:00N 38°58' E 004°03'1018.0
2018-Aug-09 18:26N 38°59' E 003°49'918.0
2018-Aug-09 17:55N 39°00' E 003°37'2618.1
2018-Aug-09 16:28N 39°03' E 003°04'818.0
2018-Aug-09 16:00N 39°05' E 002°53'1117.7
2018-Aug-09 15:24N 39°14' E 002°47'410.3
2018-Aug-09 15:00N 39°12' E 002°42'93129.3 100 / 81011.027.0 29.0 -28.8
2018-Aug-09 14:59N 39°21' E 002°43'816.5
2018-Aug-09 14:30N 39°28' E 002°40'510.1
2018-Aug-09 14:00N 39°33' E 002°38'0 0.7
2018-Aug-09 13:28N 39°33' E 002°38'0 0.0
2018-Aug-09 12:58N 39°33' E 002°38'0 0.0
2018-Aug-09 12:28N 39°33' E 002°38'0 0.0
2018-Aug-09 11:58N 39°33' E 002°38'0 0.0
2018-Aug-09 11:28N 39°33' E 002°38'0 0.0
2018-Aug-09 10:58N 39°33' E 002°38'0 0.0
2018-Aug-09 10:28N 39°33' E 002°38'0 0.0
2018-Aug-09 09:58N 39°33' E 002°38'0 0.0
2018-Aug-09 09:28N 39°33' E 002°38'0 0.0
2018-Aug-09 08:58N 39°33' E 002°38'0 0.0
2018-Aug-09 08:28N 39°33' E 002°38'0 0.0
2018-Aug-09 07:58N 39°33' E 002°38'0 0.0
2018-Aug-09 07:25N 39°33' E 002°38'0 0.0
2018-Aug-09 06:58N 39°33' E 002°38'0 0.0
2018-Aug-09 06:28N 39°33' E 002°38'0 0.0
2018-Aug-09 05:58N 39°33' E 002°38'0 0.0
2018-Aug-09 05:28N 39°33' E 002°38'0 1.0
2018-Aug-09 05:00N 39°33' E 002°39'4 7.6
2018-Aug-09 04:30N 39°30' E 002°37'5 9.5
2018-Aug-09 03:59N 39°26' E 002°33'612.5
2018-Aug-09 03:30N 39°26' E 002°26'712.8
2018-Aug-09 02:58N 39°31' E 002°19'9412.9
2018-Aug-08 19:40N 41°05' E 002°11'312.8
2018-Aug-08 19:26N 41°08' E 002°11'512.8
2018-Aug-08 19:00N 41°13' E 002°11'612.7
2018-Aug-08 18:30N 41°19' E 002°10'2 4.4
2018-Aug-08 17:59N 41°22' E 002°11'0 0.0
2018-Aug-08 17:29N 41°22' E 002°11'0 0.0
2018-Aug-08 16:50N 41°22' E 002°11'0 0.0
2018-Aug-08 16:29N 41°22' E 002°11'0 0.0
2018-Aug-08 15:59N 41°22' E 002°11'0 0.0
2018-Aug-08 15:29N 41°22' E 002°11'0 0.0
2018-Aug-08 14:59N 41°22' E 002°11'0 0.0
2018-Aug-08 14:29N 41°22' E 002°11'0 0.0
2018-Aug-08 13:59N 41°22' E 002°11'0 0.0
2018-Aug-08 13:29N 41°22' E 002°11'0 0.0
2018-Aug-08 12:59N 41°22' E 002°11'0 0.0
2018-Aug-08 12:29N 41°22' E 002°11'0 0.0
2018-Aug-08 11:59N 41°22' E 002°11'0 0.0
2018-Aug-08 11:29N 41°22' E 002°11'0 0.0
2018-Aug-08 10:59N 41°22' E 002°11'0 0.0
2018-Aug-08 10:29N 41°22' E 002°11'0 0.0
2018-Aug-08 09:59N 41°22' E 002°11'0 0.0
2018-Aug-08 09:29N 41°22' E 002°11'0 0.0
2018-Aug-08 08:59N 41°22' E 002°11'0 0.0
2018-Aug-08 08:29N 41°22' E 002°11'0 0.0
2018-Aug-08 07:59N 41°22' E 002°11'1 2.3
2018-Aug-08 07:30N 41°21' E 002°10'3 6.8
2018-Aug-08 07:00N 41°17' E 002°11'715.0
2018-Aug-08 06:30N 41°16' E 002°21'24417.7
2018-Aug-07 16:41N 41°49' E 007°44'2118.1
2018-Aug-07 15:33N 41°49' E 008°12'118.2
2018-Aug-07 15:30N 41°49' E 008°13'1811.5
2018-Aug-07 14:00N 41°48' E 008°36'4 0.4 060 / 201012.027.0 28.6 -28.0
2018-Aug-07 03:42N 41°51' E 008°41'2910.3
2018-Aug-07 00:52N 42°09' E 008°09'711.2
2018-Aug-07 00:13N 42°15' E 008°04'211.3
2018-Aug-07 00:00N 42°17' E 008°03'611.2
2018-Aug-06 23:30N 42°22' E 007°59'611.3
2018-Aug-06 23:00N 42°26' E 007°55'2111.3
2018-Aug-06 21:11N 42°44' E 007°40'211.4
2018-Aug-06 20:59N 42°46' E 007°38'511.4
2018-Aug-06 20:30N 42°50' E 007°34'1011.3
2018-Aug-06 19:39N 42°58' E 007°26'311.3
2018-Aug-06 19:25N 43°00' E 007°25'511.5
2018-Aug-06 18:59N 43°05' E 007°22'811.3
2018-Aug-06 18:15N 43°12' E 007°16'  
Track history (hours):
 
Tides and Currents Weather Stations Pressure Air Temp Water Temp Dewpoint Dewpoint Depression Visibility Wind Speed Wind Dir Waves Ship Positions

Jewel Of The Seas

Operator: Royal Caribbean Cruises Ltd

Last reported at 2018-Aug-16 17:54 UTC. Time now 2018-Aug-18 00:47 UTC.
Position N 37°14' E 023°42'.

Length 290 m; draft 8.6 m.

Type: Passenger vessel. MMSI: 311583000.

Date/timePositionNaut miles runAvg speedWind from/ knotsBaromVisibWave heightAir tempDewpointWater temp
2018-Aug-16 17:54N 37°14' E 023°42'2415.5
2018-Aug-16 16:20N 37°38' E 023°43'515.6
2018-Aug-16 16:00N 37°43' E 023°41'816.1
2018-Aug-16 15:30N 37°50' E 023°37'611.7
2018-Aug-16 15:00N 37°56' E 023°37'0 0.4
2018-Aug-16 14:28N 37°56' E 023°37'0 0.0
2018-Aug-16 13:58N 37°56' E 023°37'0 0.0
2018-Aug-16 13:28N 37°56' E 023°37'0 0.0
2018-Aug-16 12:58N 37°56' E 023°37'0 0.0
2018-Aug-16 12:28N 37°56' E 023°37'0 0.0
2018-Aug-16 11:58N 37°56' E 023°37'0 0.0
2018-Aug-16 11:28N 37°56' E 023°37'0 0.0
2018-Aug-16 10:58N 37°56' E 023°37'0 0.0
2018-Aug-16 10:28N 37°56' E 023°37'0 0.0
2018-Aug-16 09:58N 37°56' E 023°37'0 0.0
2018-Aug-16 09:28N 37°56' E 023°37'0 0.0
2018-Aug-16 08:58N 37°56' E 023°37'0 0.0
2018-Aug-16 08:28N 37°56' E 023°37'0 0.0
2018-Aug-16 07:58N 37°56' E 023°37'0 0.0
2018-Aug-16 07:28N 37°56' E 023°37'0 0.0
2018-Aug-16 06:58N 37°56' E 023°37'0 0.0
2018-Aug-16 06:28N 37°56' E 023°37'0 0.0
2018-Aug-16 05:58N 37°56' E 023°37'0 0.0
2018-Aug-16 05:28N 37°56' E 023°37'0 0.0
2018-Aug-16 04:58N 37°56' E 023°37'0 0.0
2018-Aug-16 04:28N 37°56' E 023°37'0 0.0
2018-Aug-16 03:58N 37°56' E 023°37'0 0.0
2018-Aug-16 03:28N 37°56' E 023°37'0 0.0
2018-Aug-16 02:58N 37°56' E 023°37'0 0.0
2018-Aug-16 02:28N 37°56' E 023°37'0 0.0
2018-Aug-16 01:58N 37°56' E 023°37'0 0.3
2018-Aug-16 01:30N 37°56' E 023°37'4 7.0
2018-Aug-16 01:00N 37°53' E 023°37'613.0
2018-Aug-16 00:30N 37°47' E 023°41'612.6
2018-Aug-16 00:00N 37°42' E 023°45'612.7
2018-Aug-15 23:30N 37°35' E 023°47'712.9
2018-Aug-15 23:00N 37°29' E 023°48'712.7
2018-Aug-15 22:26N 37°22' E 023°49'1211.8
2018-Aug-15 21:25N 37°11' E 023°55'4311.0
2018-Aug-15 17:31N 37°13' E 024°49'013.1
2018-Aug-15 17:30N 37°13' E 024°50'612.9
2018-Aug-15 17:00N 37°16' E 024°56'712.6
2018-Aug-15 16:29N 37°19' E 025°04'611.7
2018-Aug-15 16:00N 37°24' E 025°08'612.2
2018-Aug-15 15:30N 37°28' E 025°14'4 8.6
2018-Aug-15 15:00N 37°28' E 025°19'0 0.0
2018-Aug-15 14:30N 37°28' E 025°19'0 0.0
2018-Aug-15 14:00N 37°28' E 025°19'0 0.0
2018-Aug-15 13:30N 37°28' E 025°19'0 0.0
2018-Aug-15 12:57N 37°28' E 025°19'0 0.0
2018-Aug-15 12:30N 37°28' E 025°19'0 0.0
2018-Aug-15 12:00N 37°28' E 025°19'0 0.0
2018-Aug-15 11:30N 37°28' E 025°19'0 0.0
2018-Aug-15 10:57N 37°28' E 025°19'0 0.0
2018-Aug-15 10:30N 37°28' E 025°19'0 0.0
2018-Aug-15 10:00N 37°28' E 025°19'0 0.0
2018-Aug-15 09:30N 37°28' E 025°19'0 0.0
2018-Aug-15 09:00N 37°28' E 025°19'0 0.0
2018-Aug-15 08:24N 37°28' E 025°19'0 0.0
2018-Aug-15 07:57N 37°28' E 025°19'0 0.0
2018-Aug-15 07:30N 37°28' E 025°19'0 0.0
2018-Aug-15 07:00N 37°28' E 025°19'0 0.0
2018-Aug-15 06:30N 37°28' E 025°19'0 0.0
2018-Aug-15 05:57N 37°28' E 025°19'0 0.0
2018-Aug-15 05:30N 37°28' E 025°19'0 0.0
2018-Aug-15 05:00N 37°28' E 025°19'0 0.0
2018-Aug-15 04:30N 37°28' E 025°19'0 0.0
2018-Aug-15 04:00N 37°28' E 025°19'0 0.0
2018-Aug-15 03:30N 37°28' E 025°19'0 0.1
2018-Aug-15 03:00N 37°28' E 025°19'3 6.3
2018-Aug-15 02:30N 37°28' E 025°15'5 9.6
2018-Aug-15 02:00N 37°26' E 025°09'5 9.6
2018-Aug-15 01:30N 37°22' E 025°06'5 9.8
2018-Aug-15 01:00N 37°18' E 025°04'510.1
2018-Aug-15 00:30N 37°13' E 025°01'5 9.5
2018-Aug-15 00:00N 37°09' E 024°59'45011.2
2018-Aug-13 07:51N 37°58' E 015°35'819.5
2018-Aug-13 07:27N 38°06' E 015°35'817.1
2018-Aug-13 07:00N 38°13' E 015°36'714.5
2018-Aug-13 06:31N 38°20' E 015°40'1319.9
2018-Aug-13 05:51N 38°32' E 015°33'1619.7
2018-Aug-13 05:01N 38°46' E 015°23'7419.4
2018-Aug-13 01:12N 39°41' E 014°19'619.3
2018-Aug-13 00:54N 39°45' E 014°14'819.4
2018-Aug-13 00:30N 39°50' E 014°07'1019.5
2018-Aug-13 00:00N 39°57' E 013°58'1119.6
2018-Aug-12 23:27N 40°04' E 013°47'1219.5
2018-Aug-12 22:50N 40°12' E 013°35'619.3
2018-Aug-12 22:30N 40°17' E 013°30'1019.1
2018-Aug-12 22:00N 40°25' E 013°22'1019.1
2018-Aug-12 21:30N 40°32' E 013°14'1019.3
2018-Aug-12 20:58N 40°39' E 013°04'919.6
2018-Aug-12 20:30N 40°46' E 012°56'1219.5
2018-Aug-12 19:53N 40°55' E 012°45'819.5
2018-Aug-12 19:29N 41°00' E 012°38'919.4
2018-Aug-12 19:00N 41°07' E 012°30'4919.1
2018-Aug-12 16:26N 41°47' E 011°51'1519.1
2018-Aug-12 15:40N 41°60' E 011°42'5 0.4
2018-Aug-12 02:05N 42°05' E 011°43'1812.9
2018-Aug-12 00:41N 41°50' E 011°29'613.4
2018-Aug-12 00:16N 41°45' E 011°26'413.4
2018-Aug-12 00:00N 41°42' E 011°24'713.5
2018-Aug-11 23:30N 41°36' E 011°20'1213.4
2018-Aug-11 22:39N 41°25' E 011°13'213.4
2018-Aug-11 22:29N 41°23' E 011°12'2513.4
2018-Aug-11 20:38N 41°01' E 010°57'613.5
2018-Aug-11 20:10N 40°56' E 010°54'313.5
2018-Aug-11 19:59N 40°53' E 010°52'2613.6
2018-Aug-11 18:05N 40°30' E 010°37'113.6
2018-Aug-11 18:00N 40°29' E 010°37'713.5
2018-Aug-11 17:30N 40°23' E 010°33'913.5
2018-Aug-11 16:50N 40°15' E 010°28'713.6
2018-Aug-11 16:20N 40°09' E 010°24'3413.5
2018-Aug-11 13:51N 39°39' E 010°04'513.6
2018-Aug-11 13:29N 39°34' E 010°02'28 3.9
2018-Aug-11 06:07N 39°07' E 009°50'0 0.5
2018-Aug-11 05:58N 39°07' E 009°50'3 0.6
2018-Aug-11 01:21N 39°10' E 009°52'0 0.1
2018-Aug-11 00:56N 39°10' E 009°52'0 0.2
2018-Aug-11 00:30N 39°10' E 009°52'0 0.2
2018-Aug-11 00:00N 39°10' E 009°52'0 0.3
2018-Aug-10 22:57N 39°10' E 009°52'0 0.4
2018-Aug-10 22:16N 39°10' E 009°52'1 2.6
2018-Aug-10 22:00N 39°10' E 009°51'5 9.4
2018-Aug-10 21:28N 39°06' E 009°46'511.5
2018-Aug-10 20:59N 39°03' E 009°41'611.6
2018-Aug-10 20:30N 38°59' E 009°35'6 9.8
2018-Aug-10 19:53N 38°60' E 009°27'15 1.3
2018-Aug-10 08:36N 38°60' E 009°08'23117.4
2018-Aug-09 19:20N 38°57' E 004°10'618.1
2018-Aug-09 19:00N 38°58' E 004°03'1018.0
2018-Aug-09 18:26N 38°59' E 003°49'918.0
2018-Aug-09 17:55N 39°00' E 003°37'2618.1
2018-Aug-09 16:28N 39°03' E 003°04'818.0
2018-Aug-09 16:00N 39°05' E 002°53'1117.7
2018-Aug-09 15:24N 39°14' E 002°47'410.3
2018-Aug-09 15:00N 39°12' E 002°42'93129.3 100 / 81011.027.0 29.0 -28.8
2018-Aug-09 14:59N 39°21' E 002°43'816.5
2018-Aug-09 14:30N 39°28' E 002°40'510.1
2018-Aug-09 14:00N 39°33' E 002°38'0 0.7
2018-Aug-09 13:28N 39°33' E 002°38'0 0.0
2018-Aug-09 12:58N 39°33' E 002°38'0 0.0
2018-Aug-09 12:28N 39°33' E 002°38'0 0.0
2018-Aug-09 11:58N 39°33' E 002°38'0 0.0
2018-Aug-09 11:28N 39°33' E 002°38'0 0.0
2018-Aug-09 10:58N 39°33' E 002°38'0 0.0
2018-Aug-09 10:28N 39°33' E 002°38'0 0.0
2018-Aug-09 09:58N 39°33' E 002°38'0 0.0
2018-Aug-09 09:28N 39°33' E 002°38'0 0.0
2018-Aug-09 08:58N 39°33' E 002°38'0 0.0
2018-Aug-09 08:28N 39°33' E 002°38'0 0.0
2018-Aug-09 07:58N 39°33' E 002°38'0 0.0
2018-Aug-09 07:25N 39°33' E 002°38'0 0.0
2018-Aug-09 06:58N 39°33' E 002°38'0 0.0
2018-Aug-09 06:28N 39°33' E 002°38'0 0.0
2018-Aug-09 05:58N 39°33' E 002°38'0 0.0
2018-Aug-09 05:28N 39°33' E 002°38'0 1.0
2018-Aug-09 05:00N 39°33' E 002°39'4 7.6
2018-Aug-09 04:30N 39°30' E 002°37'5 9.5
2018-Aug-09 03:59N 39°26' E 002°33'612.5
2018-Aug-09 03:30N 39°26' E 002°26'712.8
2018-Aug-09 02:58N 39°31' E 002°19'9412.9
2018-Aug-08 19:40N 41°05' E 002°11'312.8
2018-Aug-08 19:26N 41°08' E 002°11'512.8
2018-Aug-08 19:00N 41°13' E 002°11'612.7
2018-Aug-08 18:30N 41°19' E 002°10'2 4.4
2018-Aug-08 17:59N 41°22' E 002°11'0 0.0
2018-Aug-08 17:29N 41°22' E 002°11'0 0.0
2018-Aug-08 16:50N 41°22' E 002°11'0 0.0
2018-Aug-08 16:29N 41°22' E 002°11'0 0.0
2018-Aug-08 15:59N 41°22' E 002°11'0 0.0
2018-Aug-08 15:29N 41°22' E 002°11'0 0.0
2018-Aug-08 14:59N 41°22' E 002°11'0 0.0
2018-Aug-08 14:29N 41°22' E 002°11'0 0.0
2018-Aug-08 13:59N 41°22' E 002°11'0 0.0
2018-Aug-08 13:29N 41°22' E 002°11'0 0.0
2018-Aug-08 12:59N 41°22' E 002°11'0 0.0
2018-Aug-08 12:29N 41°22' E 002°11'0 0.0
2018-Aug-08 11:59N 41°22' E 002°11'0 0.0
2018-Aug-08 11:29N 41°22' E 002°11'0 0.0
2018-Aug-08 10:59N 41°22' E 002°11'0 0.0
2018-Aug-08 10:29N 41°22' E 002°11'0 0.0
2018-Aug-08 09:59N 41°22' E 002°11'0 0.0
2018-Aug-08 09:29N 41°22' E 002°11'0 0.0
2018-Aug-08 08:59N 41°22' E 002°11'0 0.0
2018-Aug-08 08:29N 41°22' E 002°11'0 0.0
2018-Aug-08 07:59N 41°22' E 002°11'1 2.3
2018-Aug-08 07:30N 41°21' E 002°10'3 6.8
2018-Aug-08 07:00N 41°17' E 002°11'715.0
2018-Aug-08 06:30N 41°16' E 002°21'24417.7
2018-Aug-07 16:41N 41°49' E 007°44'2118.1
2018-Aug-07 15:33N 41°49' E 008°12'118.2
2018-Aug-07 15:30N 41°49' E 008°13'1811.5
2018-Aug-07 14:00N 41°48' E 008°36'4 0.4 060 / 201012.027.0 28.6 -28.0
2018-Aug-07 03:42N 41°51' E 008°41'2910.3
2018-Aug-07 00:52N 42°09' E 008°09'711.2
2018-Aug-07 00:13N 42°15' E 008°04'211.3
2018-Aug-07 00:00N 42°17' E 008°03'611.2
2018-Aug-06 23:30N 42°22' E 007°59'611.3
2018-Aug-06 23:00N 42°26' E 007°55'2111.3
2018-Aug-06 21:11N 42°44' E 007°40'211.4
2018-Aug-06 20:59N 42°46' E 007°38'511.4
2018-Aug-06 20:30N 42°50' E 007°34'1011.3
2018-Aug-06 19:39N 42°58' E 007°26'311.3
2018-Aug-06 19:25N 43°00' E 007°25'511.5
2018-Aug-06 18:59N 43°05' E 007°22'811.3
2018-Aug-06 18:15N 43°12' E 007°16'  

Dump ship's entire track history